createdAt,value
2022-10-29T00:03:11.761Z,2.44
2022-10-29T00:08:39.259Z,2.66
2022-10-29T00:14:03.313Z,3.47
2022-10-29T00:19:30.616Z,2.48
2022-10-29T00:24:57.930Z,2.54
2022-10-29T00:30:24.369Z,2.64
2022-10-29T00:35:51.988Z,2.45
2022-10-29T00:41:17.177Z,2.65
2022-10-29T00:46:40.939Z,2.63
2022-10-29T00:52:02.697Z,2.60
2022-10-29T00:57:24.057Z,2.41
2022-10-29T01:02:47.618Z,2.53
2022-10-29T01:08:15.830Z,2.69
2022-10-29T01:13:37.961Z,2.82
2022-10-29T01:19:02.657Z,2.49
2022-10-29T01:24:31.941Z,2.52
2022-10-29T01:30:13.294Z,2.75
2022-10-29T01:35:39.862Z,2.53
2022-10-29T01:41:11.500Z,2.76
2022-10-29T01:46:37.122Z,2.50
2022-10-29T01:52:04.154Z,2.65
2022-10-29T01:57:29.563Z,2.52
2022-10-29T02:02:53.600Z,2.64
2022-10-29T02:08:22.741Z,2.80
2022-10-29T02:13:50.542Z,2.50
2022-10-29T02:19:13.008Z,2.86
2022-10-29T02:24:34.577Z,3.07
2022-10-29T02:29:56.344Z,2.83
2022-10-29T02:35:23.179Z,3.05
2022-10-29T02:40:48.421Z,3.18
2022-10-29T02:46:12.733Z,2.82
2022-10-29T02:51:34.091Z,2.78
2022-10-29T02:56:59.573Z,2.88
2022-10-29T03:02:25.382Z,2.72
2022-10-29T03:07:48.830Z,2.82
2022-10-29T03:13:14.464Z,3.09
2022-10-29T03:18:40.111Z,2.94
2022-10-29T03:24:07.039Z,2.71
2022-10-29T03:29:33.019Z,2.98
2022-10-29T03:35:00.067Z,2.95
2022-10-29T03:40:23.158Z,2.69
2022-10-29T03:45:50.927Z,3.08
2022-10-29T03:51:17.562Z,2.99
2022-10-29T03:56:42.576Z,3.09
2022-10-29T04:02:08.903Z,3.12
2022-10-29T04:07:33.663Z,2.95
2022-10-29T04:12:57.204Z,3.02
2022-10-29T04:18:25.197Z,4.04
2022-10-29T04:29:20.658Z,3.10
2022-10-29T04:34:45.887Z,2.79
2022-10-29T04:40:12.635Z,3.01
2022-10-29T04:45:40.162Z,3.04
2022-10-29T04:51:12.453Z,3.31
2022-10-29T04:56:45.667Z,2.85
2022-10-29T05:02:13.431Z,3.06
2022-10-29T05:07:39.827Z,2.88
2022-10-29T05:13:04.918Z,2.92
2022-10-29T05:18:26.444Z,2.97
2022-10-29T05:23:51.193Z,3.11
2022-10-29T05:29:15.578Z,2.99
2022-10-29T05:34:44.334Z,3.39
2022-10-29T05:40:07.809Z,2.87
2022-10-29T05:45:34.348Z,3.15
2022-10-29T05:51:01.887Z,3.08
2022-10-29T05:56:30.056Z,2.94
2022-10-29T06:01:55.932Z,3.31
2022-10-29T06:07:21.760Z,2.94
2022-10-29T06:12:45.565Z,3.21
2022-10-29T06:18:12.764Z,3.08
2022-10-29T06:23:39.232Z,3.20
2022-10-29T06:29:04.494Z,2.85
2022-10-29T06:34:31.783Z,3.42
2022-10-29T06:39:57.053Z,3.98
2022-10-29T06:45:21.103Z,4.33
2022-10-29T06:50:46.245Z,3.89
2022-10-29T06:56:14.592Z,3.62
2022-10-29T07:01:42.051Z,4.20
2022-10-29T07:07:07.804Z,3.95
2022-10-29T07:12:35.059Z,3.79
2022-10-29T07:18:02.371Z,3.75
2022-10-29T07:23:26.944Z,3.62
2022-10-29T07:28:54.164Z,3.65
2022-10-29T07:34:21.174Z,3.09
2022-10-29T07:39:43.116Z,3.00
2022-10-29T07:45:05.538Z,3.25
2022-10-29T07:50:28.598Z,3.46
2022-10-29T07:55:50.291Z,2.89
2022-10-29T08:01:12.955Z,3.23
2022-10-29T08:06:36.210Z,3.19
2022-10-29T08:12:04.370Z,3.82
2022-10-29T08:17:32.101Z,3.30
2022-10-29T08:22:57.237Z,3.31
2022-10-29T08:28:25.820Z,3.49
2022-10-29T08:33:52.552Z,3.35
2022-10-29T08:39:16.439Z,3.65
2022-10-29T08:44:42.552Z,3.19
2022-10-29T08:50:09.373Z,3.98
2022-10-29T08:55:38.003Z,4.07
2022-10-29T09:01:05.394Z,3.75
2022-10-29T09:06:34.172Z,4.26
2022-10-29T09:12:01.562Z,3.26
2022-10-29T09:17:33.745Z,3.26
2022-10-29T09:22:55.806Z,3.25
2022-10-29T09:28:19.293Z,3.40
2022-10-29T09:33:44.151Z,3.36
2022-10-29T09:39:06.766Z,2.82
2022-10-29T09:44:29.530Z,2.54
2022-10-29T09:49:53.152Z,2.61
2022-10-29T09:55:18.169Z,1.96
2022-10-29T10:00:44.873Z,2.11
2022-10-29T10:06:06.800Z,2.38
2022-10-29T10:11:33.326Z,2.21
2022-10-29T10:17:00.740Z,2.45
2022-10-29T10:22:22.996Z,2.33
2022-10-29T10:27:50.653Z,2.66
2022-10-29T10:33:18.880Z,2.77
2022-10-29T10:38:49.520Z,2.48
2022-10-29T10:44:16.474Z,2.85
2022-10-29T10:49:38.971Z,2.83
2022-10-29T10:55:01.547Z,2.73
2022-10-29T11:00:25.551Z,2.25
2022-10-29T11:05:47.942Z,2.42
2022-10-29T11:11:12.859Z,2.75
2022-10-29T11:16:34.781Z,2.56
2022-10-29T11:21:57.443Z,3.03
2022-10-29T11:27:22.688Z,3.27
2022-10-29T11:32:46.198Z,3.14
2022-10-29T11:38:12.394Z,2.92
2022-10-29T11:43:34.571Z,2.64
2022-10-29T11:48:59.192Z,3.06
2022-10-29T11:54:29.138Z,2.65
2022-10-29T12:00:10.871Z,2.51
2022-10-29T12:05:35.506Z,2.18
2022-10-29T12:11:03.260Z,2.39
2022-10-29T12:16:30.171Z,2.44
2022-10-29T12:22:01.091Z,2.52
2022-10-29T12:27:32.229Z,1.79
2022-10-29T12:32:57.945Z,2.03
2022-10-29T12:38:25.709Z,2.38
2022-10-29T12:43:54.747Z,2.03
2022-10-29T12:49:17.434Z,2.02
2022-10-29T12:54:45.896Z,1.79
2022-10-29T13:00:08.071Z,2.51
2022-10-29T13:05:58.544Z,2.51
2022-10-29T13:11:48.620Z,1.80
2022-10-29T13:17:16.170Z,2.17
2022-10-29T13:22:41.423Z,1.90
2022-10-29T13:28:15.410Z,2.20
2022-10-29T13:34:06.441Z,2.10
2022-10-29T13:39:44.047Z,1.88
2022-10-29T13:45:18.421Z,1.97
2022-10-29T13:50:45.681Z,1.96
2022-10-29T13:56:14.512Z,1.91
2022-10-29T14:01:41.304Z,1.81
2022-10-29T14:07:05.385Z,2.11
2022-10-29T14:12:29.274Z,2.06
2022-10-29T14:17:55.450Z,2.59
2022-10-29T14:23:29.496Z,2.48
2022-10-29T14:28:55.860Z,1.96
2022-10-29T14:34:33.818Z,2.06
2022-10-29T14:39:58.983Z,1.76
2022-10-29T14:45:23.989Z,2.06
2022-10-29T14:50:51.777Z,1.94
2022-10-29T14:56:18.188Z,2.55
2022-10-29T15:01:44.923Z,1.97
2022-10-29T15:07:11.988Z,2.06
2022-10-29T15:12:40.932Z,2.20
2022-10-29T15:18:05.459Z,2.80
2022-10-29T15:23:30.357Z,2.25
2022-10-29T15:28:52.080Z,2.31
2022-10-29T15:34:16.414Z,2.53
2022-10-29T15:39:38.420Z,2.20
2022-10-29T15:45:19.902Z,2.24
2022-10-29T15:50:42.829Z,2.10
2022-10-29T15:56:08.086Z,2.55
2022-10-29T16:01:35.633Z,2.46
2022-10-29T16:06:57.273Z,2.91
2022-10-29T16:12:18.933Z,3.77
2022-10-29T16:17:45.476Z,3.14
2022-10-29T16:23:07.368Z,3.18
2022-10-29T16:28:31.763Z,3.35
2022-10-29T16:33:56.880Z,3.50
2022-10-29T16:39:24.978Z,3.24
2022-10-29T16:44:52.120Z,3.20
2022-10-29T16:50:19.136Z,3.91
2022-10-29T16:55:43.419Z,4.90
2022-10-29T17:01:10.072Z,4.49
2022-10-29T17:06:31.876Z,4.64
2022-10-29T17:11:56.289Z,4.47
2022-10-29T17:17:23.987Z,4.80
2022-10-29T17:22:49.289Z,4.13
2022-10-29T17:28:15.909Z,3.80
2022-10-29T17:33:43.309Z,4.87
2022-10-29T17:39:10.841Z,4.70
2022-10-29T17:44:37.107Z,6.21
2022-10-29T17:50:04.709Z,6.13
2022-10-29T17:55:27.495Z,5.55
2022-10-29T18:00:49.530Z,11.63
2022-10-29T18:06:15.448Z,6.82
2022-10-29T18:11:39.839Z,4.91
2022-10-29T18:17:05.148Z,3.58
2022-10-29T18:22:26.694Z,3.75
2022-10-29T18:27:49.955Z,5.16
2022-10-29T18:38:37.555Z,5.73
2022-10-29T18:44:02.883Z,9.23
2022-10-29T18:49:24.228Z,9.55
2022-10-29T18:54:46.381Z,7.79
2022-10-29T19:00:08.114Z,6.21
2022-10-29T19:05:33.141Z,4.33
2022-10-29T19:10:55.091Z,4.08
2022-10-29T19:16:17.761Z,4.02
2022-10-29T19:21:39.915Z,3.56
2022-10-29T19:27:01.649Z,3.49
2022-10-29T19:32:24.606Z,3.86
2022-10-29T19:37:46.557Z,3.54
2022-10-29T19:43:08.611Z,3.31
2022-10-29T19:48:30.480Z,3.67
2022-10-29T19:53:52.511Z,2.92
2022-10-29T19:59:14.755Z,3.26
2022-10-29T20:04:36.716Z,3.23
2022-10-29T20:09:58.687Z,3.95
2022-10-29T20:15:22.563Z,3.82
2022-10-29T20:20:43.382Z,3.94
2022-10-29T20:26:07.892Z,6.30
2022-10-29T20:31:30.711Z,4.53
2022-10-29T20:36:52.003Z,5.63
2022-10-29T20:42:15.596Z,3.04
2022-10-29T20:47:40.411Z,3.37
2022-10-29T20:58:33.914Z,3.46
2022-10-29T21:03:57.826Z,3.19
2022-10-29T21:09:25.126Z,2.27
2022-10-29T21:14:50.085Z,2.61
2022-10-29T21:20:16.366Z,3.24
2022-10-29T21:25:43.486Z,2.68
2022-10-29T21:31:14.268Z,2.90
2022-10-29T21:36:40.786Z,3.26
2022-10-29T21:42:07.144Z,2.87
2022-10-29T21:47:35.270Z,3.01
2022-10-29T21:53:02.713Z,2.48
2022-10-29T21:58:29.609Z,2.97
2022-10-29T22:03:57.895Z,2.98
2022-10-29T22:09:25.893Z,2.90
2022-10-29T22:14:47.970Z,2.90
2022-10-29T22:20:15.181Z,2.59
2022-10-29T22:25:36.916Z,2.49
2022-10-29T22:31:04.468Z,2.90
2022-10-29T22:36:31.702Z,2.76
2022-10-29T22:41:59.055Z,3.14
2022-10-29T22:47:26.503Z,2.98
2022-10-29T22:52:53.656Z,2.83
2022-10-29T22:58:20.887Z,3.11
2022-10-29T23:03:42.581Z,2.76
2022-10-29T23:09:09.794Z,2.96
2022-10-29T23:14:31.699Z,3.21
2022-10-29T23:19:57.544Z,3.07
2022-10-29T23:25:24.162Z,3.28
2022-10-29T23:30:47.644Z,3.25
2022-10-29T23:36:16.696Z,4.34
2022-10-29T23:41:44.741Z,3.18
2022-10-29T23:47:06.496Z,3.04
2022-10-29T23:52:34.909Z,3.36
2022-10-29T23:58:02.874Z,3.04
